sensor_id;sensor_type;location;lat;lon;timestamp;temperature;humidity
11009;DHT22;5557;51.670;7.788;2024-01-30T00:00:23;5.00;99.90
11009;DHT22;5557;51.670;7.788;2024-01-30T00:02:50;4.90;99.90
11009;DHT22;5557;51.670;7.788;2024-01-30T00:05:18;4.80;99.90
11009;DHT22;5557;51.670;7.788;2024-01-30T00:07:45;4.70;99.90
11009;DHT22;5557;51.670;7.788;2024-01-30T00:10:12;4.70;99.90
11009;DHT22;5557;51.670;7.788;2024-01-30T00:12:39;4.70;99.90
11009;DHT22;5557;51.670;7.788;2024-01-30T00:15:07;4.70;99.90
11009;DHT22;5557;51.670;7.788;2024-01-30T00:17:37;4.70;99.90
11009;DHT22;5557;51.670;7.788;2024-01-30T00:20:05;4.70;99.90
11009;DHT22;5557;51.670;7.788;2024-01-30T00:22:33;4.70;99.90
11009;DHT22;5557;51.670;7.788;2024-01-30T00:25:00;4.60;99.90
11009;DHT22;5557;51.670;7.788;2024-01-30T00:27:27;4.50;99.90
11009;DHT22;5557;51.670;7.788;2024-01-30T00:29:54;4.60;99.90
11009;DHT22;5557;51.670;7.788;2024-01-30T00:32:22;4.60;99.90
11009;DHT22;5557;51.670;7.788;2024-01-30T00:34:50;4.70;99.90
11009;DHT22;5557;51.670;7.788;2024-01-30T00:37:18;4.70;99.90
11009;DHT22;5557;51.670;7.788;2024-01-30T00:39:45;4.80;99.90
11009;DHT22;5557;51.670;7.788;2024-01-30T00:42:12;4.80;99.90
11009;DHT22;5557;51.670;7.788;2024-01-30T00:44:39;4.70;99.90
11009;DHT22;5557;51.670;7.788;2024-01-30T00:47:06;4.70;99.90
11009;DHT22;5557;51.670;7.788;2024-01-30T00:49:34;4.50;99.90
11009;DHT22;5557;51.670;7.788;2024-01-30T00:52:02;4.50;99.90
11009;DHT22;5557;51.670;7.788;2024-01-30T00:54:29;4.40;99.90
11009;DHT22;5557;51.670;7.788;2024-01-30T00:56:56;4.40;99.90
11009;DHT22;5557;51.670;7.788;2024-01-30T00:59:23;4.50;99.90
11009;DHT22;5557;51.670;7.788;2024-01-30T01:01:50;4.60;99.90
11009;DHT22;5557;51.670;7.788;2024-01-30T01:04:18;4.60;99.90
11009;DHT22;5557;51.670;7.788;2024-01-30T01:06:45;4.70;99.90
11009;DHT22;5557;51.670;7.788;2024-01-30T01:09:13;4.80;99.90
11009;DHT22;5557;51.670;7.788;2024-01-30T01:11:41;4.80;99.90
11009;DHT22;5557;51.670;7.788;2024-01-30T01:14:09;4.80;99.90
11009;DHT22;5557;51.670;7.788;2024-01-30T01:16:37;4.80;99.90
11009;DHT22;5557;51.670;7.788;2024-01-30T01:19:04;4.70;99.90
11009;DHT22;5557;51.670;7.788;2024-01-30T01:21:31;4.70;99.90
11009;DHT22;5557;51.670;7.788;2024-01-30T01:23:58;4.60;99.90
11009;DHT22;5557;51.670;7.788;2024-01-30T01:26:25;4.60;99.90
11009;DHT22;5557;51.670;7.788;2024-01-30T01:28:52;4.50;99.90
11009;DHT22;5557;51.670;7.788;2024-01-30T01:31:20;4.60;99.90
11009;DHT22;5557;51.670;7.788;2024-01-30T01:33:53;4.80;99.90
11009;DHT22;5557;51.670;7.788;2024-01-30T01:36:20;4.80;99.90
11009;DHT22;5557;51.670;7.788;2024-01-30T01:38:47;4.80;99.90
11009;DHT22;5557;51.670;7.788;2024-01-30T01:41:14;4.80;99.90
11009;DHT22;5557;51.670;7.788;2024-01-30T01:43:41;4.80;99.90
11009;DHT22;5557;51.670;7.788;2024-01-30T01:46:09;4.80;99.90
11009;DHT22;5557;51.670;7.788;2024-01-30T01:48:36;4.80;99.90
11009;DHT22;5557;51.670;7.788;2024-01-30T01:51:04;4.80;99.90
11009;DHT22;5557;51.670;7.788;2024-01-30T01:53:32;4.80;99.90
11009;DHT22;5557;51.670;7.788;2024-01-30T01:56:00;4.80;99.90
11009;DHT22;5557;51.670;7.788;2024-01-30T01:58:28;4.70;99.90
11009;DHT22;5557;51.670;7.788;2024-01-30T02:00:56;4.60;99.90
11009;DHT22;5557;51.670;7.788;2024-01-30T02:03:25;4.50;99.90
11009;DHT22;5557;51.670;7.788;2024-01-30T02:05:52;4.50;99.90
11009;DHT22;5557;51.670;7.788;2024-01-30T02:08:19;4.50;99.90
11009;DHT22;5557;51.670;7.788;2024-01-30T02:10:46;4.50;99.90
11009;DHT22;5557;51.670;7.788;2024-01-30T02:13:14;4.50;99.90
11009;DHT22;5557;51.670;7.788;2024-01-30T02:15:41;4.50;99.90
11009;DHT22;5557;51.670;7.788;2024-01-30T02:18:08;4.60;99.90
11009;DHT22;5557;51.670;7.788;2024-01-30T02:20:37;4.60;99.90
11009;DHT22;5557;51.670;7.788;2024-01-30T02:23:07;4.60;99.90
11009;DHT22;5557;51.670;7.788;2024-01-30T02:25:40;4.50;99.90
11009;DHT22;5557;51.670;7.788;2024-01-30T02:28:11;4.50;99.90
11009;DHT22;5557;51.670;7.788;2024-01-30T02:30:39;4.50;99.90
11009;DHT22;5557;51.670;7.788;2024-01-30T02:33:07;4.50;99.90
11009;DHT22;5557;51.670;7.788;2024-01-30T02:35:34;4.50;99.90
11009;DHT22;5557;51.670;7.788;2024-01-30T02:38:03;4.60;99.90
11009;DHT22;5557;51.670;7.788;2024-01-30T02:40:30;4.70;99.90
11009;DHT22;5557;51.670;7.788;2024-01-30T02:42:59;4.80;99.90
11009;DHT22;5557;51.670;7.788;2024-01-30T02:45:27;4.90;99.90
11009;DHT22;5557;51.670;7.788;2024-01-30T02:47:54;5.10;99.90
11009;DHT22;5557;51.670;7.788;2024-01-30T02:50:21;5.20;99.90
11009;DHT22;5557;51.670;7.788;2024-01-30T02:52:48;5.30;99.90
11009;DHT22;5557;51.670;7.788;2024-01-30T02:55:15;5.40;99.90
11009;DHT22;5557;51.670;7.788;2024-01-30T02:57:45;5.40;99.90
11009;DHT22;5557;51.670;7.788;2024-01-30T03:00:12;5.40;99.90
11009;DHT22;5557;51.670;7.788;2024-01-30T03:02:39;5.50;99.90
11009;DHT22;5557;51.670;7.788;2024-01-30T03:05:08;5.50;99.90
11009;DHT22;5557;51.670;7.788;2024-01-30T03:07:35;5.50;99.90
11009;DHT22;5557;51.670;7.788;2024-01-30T03:10:04;5.60;99.90
11009;DHT22;5557;51.670;7.788;2024-01-30T03:12:33;5.60;99.90
11009;DHT22;5557;51.670;7.788;2024-01-30T03:15:00;5.60;99.90
11009;DHT22;5557;51.670;7.788;2024-01-30T03:17:27;5.70;99.90
11009;DHT22;5557;51.670;7.788;2024-01-30T03:19:54;5.80;99.90
11009;DHT22;5557;51.670;7.788;2024-01-30T03:22:21;5.80;99.90
11009;DHT22;5557;51.670;7.788;2024-01-30T03:24:48;5.90;99.90
11009;DHT22;5557;51.670;7.788;2024-01-30T03:27:15;6.00;99.90
11009;DHT22;5557;51.670;7.788;2024-01-30T03:29:44;6.00;99.90
11009;DHT22;5557;51.670;7.788;2024-01-30T03:32:12;6.00;99.90
11009;DHT22;5557;51.670;7.788;2024-01-30T03:34:39;6.10;99.90
11009;DHT22;5557;51.670;7.788;2024-01-30T03:37:07;6.10;99.90
11009;DHT22;5557;51.670;7.788;2024-01-30T03:39:34;6.10;99.90
11009;DHT22;5557;51.670;7.788;2024-01-30T03:42:01;6.10;99.90
11009;DHT22;5557;51.670;7.788;2024-01-30T03:44:28;6.20;99.90
11009;DHT22;5557;51.670;7.788;2024-01-30T03:46:55;6.20;99.90
11009;DHT22;5557;51.670;7.788;2024-01-30T03:49:22;6.20;99.90
11009;DHT22;5557;51.670;7.788;2024-01-30T03:51:49;6.20;99.60
11009;DHT22;5557;51.670;7.788;2024-01-30T03:54:16;6.20;98.40
11009;DHT22;5557;51.670;7.788;2024-01-30T03:56:43;6.10;97.70
11009;DHT22;5557;51.670;7.788;2024-01-30T03:59:10;6.20;98.90
11009;DHT22;5557;51.670;7.788;2024-01-30T04:01:37;6.30;98.70
11009;DHT22;5557;51.670;7.788;2024-01-30T04:04:05;6.40;97.60
11009;DHT22;5557;51.670;7.788;2024-01-30T04:06:32;6.40;95.60
11009;DHT22;5557;51.670;7.788;2024-01-30T04:08:59;6.40;95.00
11009;DHT22;5557;51.670;7.788;2024-01-30T04:11:27;6.50;94.40
11009;DHT22;5557;51.670;7.788;2024-01-30T04:13:54;6.50;93.20
11009;DHT22;5557;51.670;7.788;2024-01-30T04:16:21;6.60;91.70
11009;DHT22;5557;51.670;7.788;2024-01-30T04:18:51;6.50;90.50
11009;DHT22;5557;51.670;7.788;2024-01-30T04:21:18;6.50;89.20
11009;DHT22;5557;51.670;7.788;2024-01-30T04:23:47;6.40;90.10
11009;DHT22;5557;51.670;7.788;2024-01-30T04:26:14;6.50;91.10
11009;DHT22;5557;51.670;7.788;2024-01-30T04:28:42;6.50;90.90
11009;DHT22;5557;51.670;7.788;2024-01-30T04:31:10;6.50;91.10
11009;DHT22;5557;51.670;7.788;2024-01-30T04:33:37;6.50;90.90
11009;DHT22;5557;51.670;7.788;2024-01-30T04:36:07;6.50;90.70
11009;DHT22;5557;51.670;7.788;2024-01-30T04:38:35;6.40;90.10
11009;DHT22;5557;51.670;7.788;2024-01-30T04:41:02;6.40;90.10
11009;DHT22;5557;51.670;7.788;2024-01-30T04:43:30;6.40;89.10
11009;DHT22;5557;51.670;7.788;2024-01-30T04:45:57;6.40;90.40
11009;DHT22;5557;51.670;7.788;2024-01-30T04:48:24;6.50;90.80
11009;DHT22;5557;51.670;7.788;2024-01-30T04:50:51;6.50;90.20
11009;DHT22;5557;51.670;7.788;2024-01-30T04:53:18;6.50;89.40
11009;DHT22;5557;51.670;7.788;2024-01-30T04:55:45;6.50;88.20
11009;DHT22;5557;51.670;7.788;2024-01-30T04:58:13;6.50;86.90
11009;DHT22;5557;51.670;7.788;2024-01-30T05:00:40;6.50;84.70
11009;DHT22;5557;51.670;7.788;2024-01-30T05:03:07;6.40;85.40
11009;DHT22;5557;51.670;7.788;2024-01-30T05:05:34;6.40;87.50
11009;DHT22;5557;51.670;7.788;2024-01-30T05:08:01;6.30;88.20
11009;DHT22;5557;51.670;7.788;2024-01-30T05:10:28;6.30;89.10
11009;DHT22;5557;51.670;7.788;2024-01-30T05:12:56;6.30;91.70
11009;DHT22;5557;51.670;7.788;2024-01-30T05:15:23;6.30;92.30
11009;DHT22;5557;51.670;7.788;2024-01-30T05:17:50;6.30;92.10
11009;DHT22;5557;51.670;7.788;2024-01-30T05:20:17;6.30;92.00
11009;DHT22;5557;51.670;7.788;2024-01-30T05:22:44;6.30;91.70
11009;DHT22;5557;51.670;7.788;2024-01-30T05:25:13;6.20;91.60
11009;DHT22;5557;51.670;7.788;2024-01-30T05:27:40;6.10;91.40
11009;DHT22;5557;51.670;7.788;2024-01-30T05:30:08;6.10;93.70
11009;DHT22;5557;51.670;7.788;2024-01-30T05:32:37;6.10;94.70
11009;DHT22;5557;51.670;7.788;2024-01-30T05:35:17;6.10;95.30
11009;DHT22;5557;51.670;7.788;2024-01-30T05:37:44;6.10;96.10
11009;DHT22;5557;51.670;7.788;2024-01-30T05:40:11;6.10;95.20
11009;DHT22;5557;51.670;7.788;2024-01-30T05:42:39;6.00;94.00
11009;DHT22;5557;51.670;7.788;2024-01-30T05:45:06;5.90;93.80
11009;DHT22;5557;51.670;7.788;2024-01-30T05:47:34;5.70;94.30
11009;DHT22;5557;51.670;7.788;2024-01-30T05:50:01;5.70;95.50
11009;DHT22;5557;51.670;7.788;2024-01-30T05:52:28;5.60;96.90
11009;DHT22;5557;51.670;7.788;2024-01-30T05:54:55;5.60;99.20
11009;DHT22;5557;51.670;7.788;2024-01-30T05:57:22;5.60;99.90
11009;DHT22;5557;51.670;7.788;2024-01-30T05:59:49;5.70;99.90
11009;DHT22;5557;51.670;7.788;2024-01-30T06:02:18;5.70;99.90
11009;DHT22;5557;51.670;7.788;2024-01-30T06:04:47;5.80;99.90
11009;DHT22;5557;51.670;7.788;2024-01-30T06:07:14;5.80;99.90
11009;DHT22;5557;51.670;7.788;2024-01-30T06:09:42;5.70;99.90
11009;DHT22;5557;51.670;7.788;2024-01-30T06:12:09;5.60;99.90
11009;DHT22;5557;51.670;7.788;2024-01-30T06:14:39;5.60;99.90
11009;DHT22;5557;51.670;7.788;2024-01-30T06:17:09;5.60;99.90
11009;DHT22;5557;51.670;7.788;2024-01-30T06:19:36;5.60;99.90
11009;DHT22;5557;51.670;7.788;2024-01-30T06:22:08;5.50;99.90
11009;DHT22;5557;51.670;7.788;2024-01-30T06:24:35;5.40;99.90
11009;DHT22;5557;51.670;7.788;2024-01-30T06:27:03;5.40;99.90
11009;DHT22;5557;51.670;7.788;2024-01-30T06:29:31;5.40;99.90
11009;DHT22;5557;51.670;7.788;2024-01-30T06:31:59;5.40;99.90
11009;DHT22;5557;51.670;7.788;2024-01-30T06:34:26;5.40;99.90
11009;DHT22;5557;51.670;7.788;2024-01-30T06:36:54;5.30;99.90
11009;DHT22;5557;51.670;7.788;2024-01-30T06:39:21;5.30;99.90
11009;DHT22;5557;51.670;7.788;2024-01-30T06:41:49;5.30;99.90
11009;DHT22;5557;51.670;7.788;2024-01-30T06:44:16;5.20;99.90
11009;DHT22;5557;51.670;7.788;2024-01-30T06:46:43;5.20;99.90
11009;DHT22;5557;51.670;7.788;2024-01-30T06:49:10;5.10;99.90
11009;DHT22;5557;51.670;7.788;2024-01-30T06:51:37;5.10;99.90
11009;DHT22;5557;51.670;7.788;2024-01-30T06:54:04;5.10;99.90
11009;DHT22;5557;51.670;7.788;2024-01-30T06:56:32;5.10;99.90
11009;DHT22;5557;51.670;7.788;2024-01-30T06:58:59;5.10;99.90
11009;DHT22;5557;51.670;7.788;2024-01-30T07:01:29;5.10;99.90
11009;DHT22;5557;51.670;7.788;2024-01-30T07:03:57;5.10;99.90
11009;DHT22;5557;51.670;7.788;2024-01-30T07:06:25;5.10;99.90
11009;DHT22;5557;51.670;7.788;2024-01-30T07:08:53;5.20;99.90
11009;DHT22;5557;51.670;7.788;2024-01-30T07:11:21;5.20;99.90
11009;DHT22;5557;51.670;7.788;2024-01-30T07:13:51;5.20;99.90
11009;DHT22;5557;51.670;7.788;2024-01-30T07:16:18;5.30;99.90
11009;DHT22;5557;51.670;7.788;2024-01-30T07:18:45;5.30;99.90
11009;DHT22;5557;51.670;7.788;2024-01-30T07:21:12;5.30;99.90
11009;DHT22;5557;51.670;7.788;2024-01-30T07:23:39;5.40;99.90
11009;DHT22;5557;51.670;7.788;2024-01-30T07:26:08;5.40;99.90
11009;DHT22;5557;51.670;7.788;2024-01-30T07:28:37;5.50;99.90
11009;DHT22;5557;51.670;7.788;2024-01-30T07:31:05;5.60;99.90
11009;DHT22;5557;51.670;7.788;2024-01-30T07:33:33;5.60;99.90
11009;DHT22;5557;51.670;7.788;2024-01-30T07:36:03;5.60;99.90
11009;DHT22;5557;51.670;7.788;2024-01-30T07:38:33;5.70;99.90
11009;DHT22;5557;51.670;7.788;2024-01-30T07:41:01;5.80;99.90
11009;DHT22;5557;51.670;7.788;2024-01-30T07:43:28;5.80;99.90
11009;DHT22;5557;51.670;7.788;2024-01-30T07:45:55;5.90;99.90
11009;DHT22;5557;51.670;7.788;2024-01-30T07:48:22;6.00;99.90
11009;DHT22;5557;51.670;7.788;2024-01-30T07:50:49;6.10;99.90
11009;DHT22;5557;51.670;7.788;2024-01-30T07:53:16;6.20;99.90
11009;DHT22;5557;51.670;7.788;2024-01-30T07:55:43;6.30;99.90
11009;DHT22;5557;51.670;7.788;2024-01-30T07:58:13;6.30;99.90
11009;DHT22;5557;51.670;7.788;2024-01-30T08:00:41;6.40;99.90
11009;DHT22;5557;51.670;7.788;2024-01-30T08:03:08;6.50;99.90
11009;DHT22;5557;51.670;7.788;2024-01-30T08:05:35;6.50;99.90
11009;DHT22;5557;51.670;7.788;2024-01-30T08:08:06;6.60;99.90
11009;DHT22;5557;51.670;7.788;2024-01-30T08:10:33;6.70;99.90
11009;DHT22;5557;51.670;7.788;2024-01-30T08:13:01;6.80;99.90
11009;DHT22;5557;51.670;7.788;2024-01-30T08:15:28;6.90;99.90
11009;DHT22;5557;51.670;7.788;2024-01-30T08:17:55;7.00;99.80
11009;DHT22;5557;51.670;7.788;2024-01-30T08:20:25;7.10;97.20
11009;DHT22;5557;51.670;7.788;2024-01-30T08:22:52;7.20;93.80
11009;DHT22;5557;51.670;7.788;2024-01-30T08:25:19;7.30;90.80
11009;DHT22;5557;51.670;7.788;2024-01-30T08:27:46;7.40;84.80
11009;DHT22;5557;51.670;7.788;2024-01-30T08:30:14;7.50;79.90
11009;DHT22;5557;51.670;7.788;2024-01-30T08:32:41;7.60;74.00
11009;DHT22;5557;51.670;7.788;2024-01-30T08:35:09;7.80;70.30
11009;DHT22;5557;51.670;7.788;2024-01-30T08:37:36;8.00;65.60
11009;DHT22;5557;51.670;7.788;2024-01-30T08:40:05;8.20;59.20
11009;DHT22;5557;51.670;7.788;2024-01-30T08:42:32;8.30;53.70
11009;DHT22;5557;51.670;7.788;2024-01-30T08:45:00;8.40;47.70
11009;DHT22;5557;51.670;7.788;2024-01-30T08:47:27;8.60;43.30
11009;DHT22;5557;51.670;7.788;2024-01-30T08:49:54;8.80;36.60
11009;DHT22;5557;51.670;7.788;2024-01-30T08:52:21;9.00;31.20
11009;DHT22;5557;51.670;7.788;2024-01-30T08:54:48;9.20;27.70
11009;DHT22;5557;51.670;7.788;2024-01-30T08:57:15;9.40;22.60
11009;DHT22;5557;51.670;7.788;2024-01-30T08:59:42;9.50;18.70
11009;DHT22;5557;51.670;7.788;2024-01-30T09:02:13;9.60;17.50
11009;DHT22;5557;51.670;7.788;2024-01-30T09:04:43;9.70;15.00
11009;DHT22;5557;51.670;7.788;2024-01-30T09:07:10;9.80;14.10
11009;DHT22;5557;51.670;7.788;2024-01-30T09:09:39;9.80;14.30
11009;DHT22;5557;51.670;7.788;2024-01-30T09:12:09;9.80;16.20
11009;DHT22;5557;51.670;7.788;2024-01-30T09:14:39;9.70;16.50
11009;DHT22;5557;51.670;7.788;2024-01-30T09:17:07;9.60;17.00
11009;DHT22;5557;51.670;7.788;2024-01-30T09:19:35;9.60;17.70
11009;DHT22;5557;51.670;7.788;2024-01-30T09:22:03;9.60;18.60
11009;DHT22;5557;51.670;7.788;2024-01-30T09:24:30;9.60;19.60
11009;DHT22;5557;51.670;7.788;2024-01-30T09:26:57;9.70;21.10
11009;DHT22;5557;51.670;7.788;2024-01-30T09:29:25;9.80;20.70
11009;DHT22;5557;51.670;7.788;2024-01-30T09:31:52;10.10;17.90
11009;DHT22;5557;51.670;7.788;2024-01-30T09:34:19;10.40;14.50
11009;DHT22;5557;51.670;7.788;2024-01-30T09:36:48;10.70;9.50
11009;DHT22;5557;51.670;7.788;2024-01-30T09:39:15;10.90;5.30
11009;DHT22;5557;51.670;7.788;2024-01-30T09:41:49;10.80;3.10
11009;DHT22;5557;51.670;7.788;2024-01-30T09:44:20;10.80;4.00
11009;DHT22;5557;51.670;7.788;2024-01-30T09:46:47;10.70;5.90
11009;DHT22;5557;51.670;7.788;2024-01-30T09:49:15;10.70;6.20
11009;DHT22;5557;51.670;7.788;2024-01-30T09:51:48;10.70;5.50
11009;DHT22;5557;51.670;7.788;2024-01-30T09:54:15;10.80;7.60
11009;DHT22;5557;51.670;7.788;2024-01-30T09:56:43;10.80;7.00
11009;DHT22;5557;51.670;7.788;2024-01-30T09:59:13;10.80;5.40
11009;DHT22;5557;51.670;7.788;2024-01-30T10:01:41;10.90;5.30
11009;DHT22;5557;51.670;7.788;2024-01-30T10:04:09;10.90;6.30
11009;DHT22;5557;51.670;7.788;2024-01-30T10:06:37;11.00;5.70
11009;DHT22;5557;51.670;7.788;2024-01-30T10:09:08;11.20;4.40
11009;DHT22;5557;51.670;7.788;2024-01-30T10:11:40;11.30;2.80
11009;DHT22;5557;51.670;7.788;2024-01-30T10:14:07;11.30;1.40
11009;DHT22;5557;51.670;7.788;2024-01-30T10:16:34;11.30;1.00
11009;DHT22;5557;51.670;7.788;2024-01-30T10:19:01;11.40;1.00
11009;DHT22;5557;51.670;7.788;2024-01-30T10:21:30;11.40;1.00
11009;DHT22;5557;51.670;7.788;2024-01-30T10:23:58;11.50;1.00
11009;DHT22;5557;51.670;7.788;2024-01-30T10:26:25;11.50;1.00
11009;DHT22;5557;51.670;7.788;2024-01-30T10:28:53;11.50;1.00
11009;DHT22;5557;51.670;7.788;2024-01-30T10:31:20;11.50;1.00
11009;DHT22;5557;51.670;7.788;2024-01-30T10:33:48;11.40;1.00
11009;DHT22;5557;51.670;7.788;2024-01-30T10:36:17;11.40;1.00
11009;DHT22;5557;51.670;7.788;2024-01-30T10:38:51;11.40;1.00
11009;DHT22;5557;51.670;7.788;2024-01-30T10:41:24;11.50;1.00
11009;DHT22;5557;51.670;7.788;2024-01-30T10:44:02;11.50;1.00
11009;DHT22;5557;51.670;7.788;2024-01-30T10:46:37;11.50;1.00
11009;DHT22;5557;51.670;7.788;2024-01-30T10:49:05;11.60;1.00
11009;DHT22;5557;51.670;7.788;2024-01-30T10:51:34;11.70;1.00
11009;DHT22;5557;51.670;7.788;2024-01-30T10:54:03;11.70;1.00
11009;DHT22;5557;51.670;7.788;2024-01-30T10:56:32;11.70;1.00
11009;DHT22;5557;51.670;7.788;2024-01-30T10:59:00;11.80;1.00
11009;DHT22;5557;51.670;7.788;2024-01-30T11:01:28;11.80;1.00
11009;DHT22;5557;51.670;7.788;2024-01-30T11:03:56;11.80;1.00
11009;DHT22;5557;51.670;7.788;2024-01-30T11:06:25;11.90;1.00
11009;DHT22;5557;51.670;7.788;2024-01-30T11:09:04;11.90;1.00
11009;DHT22;5557;51.670;7.788;2024-01-30T11:11:56;12.00;1.00
11009;DHT22;5557;51.670;7.788;2024-01-30T11:14:30;12.00;1.00
11009;DHT22;5557;51.670;7.788;2024-01-30T11:16:57;12.10;1.00
11009;DHT22;5557;51.670;7.788;2024-01-30T11:19:26;12.10;1.00
11009;DHT22;5557;51.670;7.788;2024-01-30T11:21:54;12.20;1.00
11009;DHT22;5557;51.670;7.788;2024-01-30T11:24:24;12.30;1.00
11009;DHT22;5557;51.670;7.788;2024-01-30T11:27:01;12.30;1.00
11009;DHT22;5557;51.670;7.788;2024-01-30T11:29:30;12.40;1.00
11009;DHT22;5557;51.670;7.788;2024-01-30T11:31:58;12.50;1.00
11009;DHT22;5557;51.670;7.788;2024-01-30T11:34:26;12.50;1.00
11009;DHT22;5557;51.670;7.788;2024-01-30T11:36:58;12.60;1.00
11009;DHT22;5557;51.670;7.788;2024-01-30T11:39:26;12.70;1.00
11009;DHT22;5557;51.670;7.788;2024-01-30T11:41:54;12.90;1.00
11009;DHT22;5557;51.670;7.788;2024-01-30T11:44:22;13.10;1.00
11009;DHT22;5557;51.670;7.788;2024-01-30T11:46:52;13.20;1.00
11009;DHT22;5557;51.670;7.788;2024-01-30T11:49:19;13.20;1.00
11009;DHT22;5557;51.670;7.788;2024-01-30T11:51:47;13.40;1.00
11009;DHT22;5557;51.670;7.788;2024-01-30T11:54:18;13.50;1.00
11009;DHT22;5557;51.670;7.788;2024-01-30T11:56:45;13.70;1.00
11009;DHT22;5557;51.670;7.788;2024-01-30T11:59:12;13.70;1.00
11009;DHT22;5557;51.670;7.788;2024-01-30T12:01:40;13.80;1.00
11009;DHT22;5557;51.670;7.788;2024-01-30T12:04:08;13.80;1.00
11009;DHT22;5557;51.670;7.788;2024-01-30T12:06:37;13.60;1.00
11009;DHT22;5557;51.670;7.788;2024-01-30T12:09:05;13.70;1.00
11009;DHT22;5557;51.670;7.788;2024-01-30T12:11:48;13.70;1.00
11009;DHT22;5557;51.670;7.788;2024-01-30T12:14:16;13.70;1.00
11009;DHT22;5557;51.670;7.788;2024-01-30T12:16:48;13.70;1.00
11009;DHT22;5557;51.670;7.788;2024-01-30T12:19:23;13.70;1.00
11009;DHT22;5557;51.670;7.788;2024-01-30T12:21:56;13.60;1.00
11009;DHT22;5557;51.670;7.788;2024-01-30T12:24:27;13.60;1.00
11009;DHT22;5557;51.670;7.788;2024-01-30T12:26:59;13.50;1.00
11009;DHT22;5557;51.670;7.788;2024-01-30T12:29:27;13.40;1.00
11009;DHT22;5557;51.670;7.788;2024-01-30T12:32:01;13.40;1.00
11009;DHT22;5557;51.670;7.788;2024-01-30T12:34:28;13.40;1.00
11009;DHT22;5557;51.670;7.788;2024-01-30T12:37:00;13.30;1.00
11009;DHT22;5557;51.670;7.788;2024-01-30T12:39:27;13.30;1.00
11009;DHT22;5557;51.670;7.788;2024-01-30T12:41:55;13.20;1.00
11009;DHT22;5557;51.670;7.788;2024-01-30T12:44:23;13.20;1.00
11009;DHT22;5557;51.670;7.788;2024-01-30T12:46:52;13.20;1.00
11009;DHT22;5557;51.670;7.788;2024-01-30T12:49:19;13.20;1.00
11009;DHT22;5557;51.670;7.788;2024-01-30T12:51:47;13.20;1.00
11009;DHT22;5557;51.670;7.788;2024-01-30T12:54:14;13.20;1.00
11009;DHT22;5557;51.670;7.788;2024-01-30T12:56:42;13.20;1.00
11009;DHT22;5557;51.670;7.788;2024-01-30T12:59:09;13.20;1.00
11009;DHT22;5557;51.670;7.788;2024-01-30T13:01:36;13.20;1.00
11009;DHT22;5557;51.670;7.788;2024-01-30T13:04:04;13.10;1.00
11009;DHT22;5557;51.670;7.788;2024-01-30T13:06:31;13.00;1.00
11009;DHT22;5557;51.670;7.788;2024-01-30T13:08:58;13.00;1.00
11009;DHT22;5557;51.670;7.788;2024-01-30T13:11:26;12.90;1.00
11009;DHT22;5557;51.670;7.788;2024-01-30T13:13:53;12.90;1.00
11009;DHT22;5557;51.670;7.788;2024-01-30T13:16:20;12.90;1.00
11009;DHT22;5557;51.670;7.788;2024-01-30T13:18:47;12.90;1.00
11009;DHT22;5557;51.670;7.788;2024-01-30T13:21:14;12.80;1.00
11009;DHT22;5557;51.670;7.788;2024-01-30T13:23:42;12.80;1.00
11009;DHT22;5557;51.670;7.788;2024-01-30T13:26:09;12.80;1.00
11009;DHT22;5557;51.670;7.788;2024-01-30T13:28:38;12.80;1.00
11009;DHT22;5557;51.670;7.788;2024-01-30T13:31:05;12.80;1.00
11009;DHT22;5557;51.670;7.788;2024-01-30T13:33:34;12.70;1.00
11009;DHT22;5557;51.670;7.788;2024-01-30T13:36:02;12.70;1.70
11009;DHT22;5557;51.670;7.788;2024-01-30T13:38:33;12.60;1.90
11009;DHT22;5557;51.670;7.788;2024-01-30T13:41:00;12.60;2.10
11009;DHT22;5557;51.670;7.788;2024-01-30T13:43:27;12.60;2.60
11009;DHT22;5557;51.670;7.788;2024-01-30T13:45:54;12.60;3.00
11009;DHT22;5557;51.670;7.788;2024-01-30T13:48:22;12.60;3.30
11009;DHT22;5557;51.670;7.788;2024-01-30T13:50:49;12.60;3.50
11009;DHT22;5557;51.670;7.788;2024-01-30T13:53:16;12.50;3.90
11009;DHT22;5557;51.670;7.788;2024-01-30T13:55:43;12.50;4.30
11009;DHT22;5557;51.670;7.788;2024-01-30T13:58:10;12.50;4.70
11009;DHT22;5557;51.670;7.788;2024-01-30T14:00:38;12.50;5.00
11009;DHT22;5557;51.670;7.788;2024-01-30T14:03:06;12.50;5.20
11009;DHT22;5557;51.670;7.788;2024-01-30T14:05:34;12.40;5.40
11009;DHT22;5557;51.670;7.788;2024-01-30T14:08:05;12.40;6.20
11009;DHT22;5557;51.670;7.788;2024-01-30T14:10:32;12.40;6.10
11009;DHT22;5557;51.670;7.788;2024-01-30T14:12:59;12.40;5.90
11009;DHT22;5557;51.670;7.788;2024-01-30T14:15:26;12.40;6.30
11009;DHT22;5557;51.670;7.788;2024-01-30T14:17:55;12.40;6.90
11009;DHT22;5557;51.670;7.788;2024-01-30T14:20:24;12.40;6.30
11009;DHT22;5557;51.670;7.788;2024-01-30T14:22:53;12.40;6.60
11009;DHT22;5557;51.670;7.788;2024-01-30T14:25:23;12.40;6.40
11009;DHT22;5557;51.670;7.788;2024-01-30T14:27:50;12.40;6.30
11009;DHT22;5557;51.670;7.788;2024-01-30T14:30:17;12.30;6.20
11009;DHT22;5557;51.670;7.788;2024-01-30T14:32:45;12.30;6.20
11009;DHT22;5557;51.670;7.788;2024-01-30T14:35:14;12.30;6.70
11009;DHT22;5557;51.670;7.788;2024-01-30T14:37:41;12.20;7.20
11009;DHT22;5557;51.670;7.788;2024-01-30T14:40:09;12.20;8.10
11009;DHT22;5557;51.670;7.788;2024-01-30T14:42:36;12.20;8.60
11009;DHT22;5557;51.670;7.788;2024-01-30T14:45:06;12.10;9.50
11009;DHT22;5557;51.670;7.788;2024-01-30T14:47:35;12.10;10.40
11009;DHT22;5557;51.670;7.788;2024-01-30T14:50:03;12.10;10.70
11009;DHT22;5557;51.670;7.788;2024-01-30T14:52:35;12.00;11.30
11009;DHT22;5557;51.670;7.788;2024-01-30T14:55:02;12.10;11.70
11009;DHT22;5557;51.670;7.788;2024-01-30T14:57:30;12.00;11.50
11009;DHT22;5557;51.670;7.788;2024-01-30T14:59:57;12.10;11.90
11009;DHT22;5557;51.670;7.788;2024-01-30T15:02:24;12.00;11.80
11009;DHT22;5557;51.670;7.788;2024-01-30T15:04:51;12.10;11.80
11009;DHT22;5557;51.670;7.788;2024-01-30T15:07:20;12.10;11.00
11009;DHT22;5557;51.670;7.788;2024-01-30T15:09:59;12.20;10.20
11009;DHT22;5557;51.670;7.788;2024-01-30T15:12:26;12.20;9.10
11009;DHT22;5557;51.670;7.788;2024-01-30T15:14:53;12.20;8.10
11009;DHT22;5557;51.670;7.788;2024-01-30T15:17:20;12.30;7.40
11009;DHT22;5557;51.670;7.788;2024-01-30T15:19:50;12.30;6.90
11009;DHT22;5557;51.670;7.788;2024-01-30T15:22:18;12.20;7.30
11009;DHT22;5557;51.670;7.788;2024-01-30T15:24:45;12.20;7.40
11009;DHT22;5557;51.670;7.788;2024-01-30T15:27:12;12.20;7.50
11009;DHT22;5557;51.670;7.788;2024-01-30T15:29:39;12.10;7.20
11009;DHT22;5557;51.670;7.788;2024-01-30T15:32:06;12.10;7.70
11009;DHT22;5557;51.670;7.788;2024-01-30T15:34:34;12.10;8.00
11009;DHT22;5557;51.670;7.788;2024-01-30T15:37:01;12.00;8.40
11009;DHT22;5557;51.670;7.788;2024-01-30T15:39:29;11.90;9.60
11009;DHT22;5557;51.670;7.788;2024-01-30T15:41:59;11.90;10.90
11009;DHT22;5557;51.670;7.788;2024-01-30T15:44:27;11.80;11.80
11009;DHT22;5557;51.670;7.788;2024-01-30T15:46:54;11.70;12.40
11009;DHT22;5557;51.670;7.788;2024-01-30T15:49:21;11.70;13.30
11009;DHT22;5557;51.670;7.788;2024-01-30T15:51:49;11.60;14.70
11009;DHT22;5557;51.670;7.788;2024-01-30T15:54:16;11.50;14.60
11009;DHT22;5557;51.670;7.788;2024-01-30T15:56:44;11.40;15.00
11009;DHT22;5557;51.670;7.788;2024-01-30T15:59:11;11.40;14.50
11009;DHT22;5557;51.670;7.788;2024-01-30T16:01:38;11.30;13.90
11009;DHT22;5557;51.670;7.788;2024-01-30T16:04:05;11.30;14.10